sensor_id;sensor_type;location;lat;lon;timestamp;pressure;altitude;pressure_sealevel;temperature;humidity
46778;BME280;32536;47.128;8.746;2024-01-06T00:01:11;90346.97;;;7.31;53.70
46778;BME280;32536;47.128;8.746;2024-01-06T00:03:40;90348.50;;;7.32;54.04
46778;BME280;32536;47.128;8.746;2024-01-06T00:06:07;90347.72;;;7.32;53.71
46778;BME280;32536;47.128;8.746;2024-01-06T00:08:37;90345.47;;;7.30;53.30
46778;BME280;32536;47.128;8.746;2024-01-06T00:11:04;90345.91;;;7.29;53.62
46778;BME280;32536;47.128;8.746;2024-01-06T00:13:30;90340.22;;;7.27;53.35
46778;BME280;32536;47.128;8.746;2024-01-06T00:15:57;90344.06;;;7.26;53.92
46778;BME280;32536;47.128;8.746;2024-01-06T00:18:24;90349.38;;;7.26;53.94
46778;BME280;32536;47.128;8.746;2024-01-06T00:20:51;90349.38;;;7.26;53.27
46778;BME280;32536;47.128;8.746;2024-01-06T00:23:18;90350.13;;;7.26;53.87
46778;BME280;32536;47.128;8.746;2024-01-06T00:25:45;90346.72;;;7.26;53.38
46778;BME280;32536;47.128;8.746;2024-01-06T00:28:12;90348.72;;;7.21;53.55
46778;BME280;32536;47.128;8.746;2024-01-06T00:30:38;90356.38;;;7.19;54.33
46778;BME280;32536;47.128;8.746;2024-01-06T00:33:05;90348.72;;;7.21;54.22
46778;BME280;32536;47.128;8.746;2024-01-06T00:35:32;90352.47;;;7.24;53.60
46778;BME280;32536;47.128;8.746;2024-01-06T00:37:58;90355.06;;;7.28;53.90
46778;BME280;32536;47.128;8.746;2024-01-06T00:40:26;90361.03;;;7.32;53.92
46778;BME280;32536;47.128;8.746;2024-01-06T00:42:53;90362.13;;;7.34;54.10
46778;BME280;32536;47.128;8.746;2024-01-06T00:45:19;90364.72;;;7.38;53.98
46778;BME280;32536;47.128;8.746;2024-01-06T00:47:46;90371.53;;;7.39;53.93
46778;BME280;32536;47.128;8.746;2024-01-06T00:50:13;90357.47;;;7.39;53.49
46778;BME280;32536;47.128;8.746;2024-01-06T00:52:41;90354.56;;;7.33;53.96
46778;BME280;32536;47.128;8.746;2024-01-06T00:55:08;90365.38;;;7.26;53.90
46778;BME280;32536;47.128;8.746;2024-01-06T00:57:35;90368.09;;;7.22;54.18
46778;BME280;32536;47.128;8.746;2024-01-06T01:00:04;90365.53;;;7.18;53.68
46778;BME280;32536;47.128;8.746;2024-01-06T01:02:31;90373.59;;;7.15;54.22
46778;BME280;32536;47.128;8.746;2024-01-06T01:04:58;90374.06;;;7.10;54.69
46778;BME280;32536;47.128;8.746;2024-01-06T01:07:25;90382.56;;;7.04;54.47
46778;BME280;32536;47.128;8.746;2024-01-06T01:09:52;90386.03;;;7.01;54.45
46778;BME280;32536;47.128;8.746;2024-01-06T01:12:19;90386.03;;;7.01;54.74
46778;BME280;32536;47.128;8.746;2024-01-06T01:14:46;90391.38;;;7.01;54.09
46778;BME280;32536;47.128;8.746;2024-01-06T01:17:13;90397.78;;;7.04;54.19
46778;BME280;32536;47.128;8.746;2024-01-06T01:19:40;90401.13;;;7.08;54.25
46778;BME280;32536;47.128;8.746;2024-01-06T01:22:07;90408.28;;;7.11;54.78
46778;BME280;32536;47.128;8.746;2024-01-06T01:24:33;90401.38;;;7.14;54.14
46778;BME280;32536;47.128;8.746;2024-01-06T01:27:00;90408.22;;;7.15;54.53
46778;BME280;32536;47.128;8.746;2024-01-06T01:29:27;90415.03;;;7.16;54.20
46778;BME280;32536;47.128;8.746;2024-01-06T01:31:54;90419.56;;;7.19;54.57
46778;BME280;32536;47.128;8.746;2024-01-06T01:34:21;90420.38;;;7.16;54.60
46778;BME280;32536;47.128;8.746;2024-01-06T01:36:48;90422.69;;;7.14;54.81
46778;BME280;32536;47.128;8.746;2024-01-06T01:39:14;90422.69;;;7.14;55.01
46778;BME280;32536;47.128;8.746;2024-01-06T01:41:41;90416.97;;;7.15;54.34
46778;BME280;32536;47.128;8.746;2024-01-06T01:44:08;90422.28;;;7.15;54.58
46778;BME280;32536;47.128;8.746;2024-01-06T01:46:35;90414.31;;;7.15;54.85
46778;BME280;32536;47.128;8.746;2024-01-06T01:49:02;90406.38;;;7.12;54.45
46778;BME280;32536;47.128;8.746;2024-01-06T01:51:31;90412.88;;;7.11;54.77
46778;BME280;32536;47.128;8.746;2024-01-06T01:54:04;90407.63;;;7.07;54.70
46778;BME280;32536;47.128;8.746;2024-01-06T01:56:32;90405.03;;;7.03;54.65
46778;BME280;32536;47.128;8.746;2024-01-06T01:59:06;90411.56;;;6.99;55.20
46778;BME280;32536;47.128;8.746;2024-01-06T02:01:39;90415.75;;;7.00;54.50
46778;BME280;32536;47.128;8.746;2024-01-06T02:04:08;90416.84;;;7.02;54.85
46778;BME280;32536;47.128;8.746;2024-01-06T02:06:35;90421.25;;;7.09;54.71
46778;BME280;32536;47.128;8.746;2024-01-06T02:09:01;90415.78;;;7.16;54.90
46778;BME280;32536;47.128;8.746;2024-01-06T02:11:28;90421.38;;;7.22;54.46
46778;BME280;32536;47.128;8.746;2024-01-06T02:13:55;90414.81;;;7.27;54.70
46778;BME280;32536;47.128;8.746;2024-01-06T02:16:22;90420.81;;;7.31;54.52
46778;BME280;32536;47.128;8.746;2024-01-06T02:18:48;90423.41;;;7.34;54.29
46778;BME280;32536;47.128;8.746;2024-01-06T02:21:15;90423.31;;;7.38;54.46
46778;BME280;32536;47.128;8.746;2024-01-06T02:23:43;90425.16;;;7.41;54.51
46778;BME280;32536;47.128;8.746;2024-01-06T02:26:10;90422.44;;;7.45;54.10
46778;BME280;32536;47.128;8.746;2024-01-06T02:28:39;90425.34;;;7.50;54.10
46778;BME280;32536;47.128;8.746;2024-01-06T02:31:05;90426.09;;;7.51;53.59
46778;BME280;32536;47.128;8.746;2024-01-06T02:33:32;90433.00;;;7.48;54.14
46778;BME280;32536;47.128;8.746;2024-01-06T02:35:59;90436.56;;;7.42;53.80
46778;BME280;32536;47.128;8.746;2024-01-06T02:38:26;90429.50;;;7.35;54.03
46778;BME280;32536;47.128;8.746;2024-01-06T02:40:52;90435.72;;;7.28;54.12
46778;BME280;32536;47.128;8.746;2024-01-06T02:43:19;90438.94;;;7.19;54.55
46778;BME280;32536;47.128;8.746;2024-01-06T02:45:46;90434.16;;;7.11;54.12
46778;BME280;32536;47.128;8.746;2024-01-06T02:48:12;90435.81;;;7.04;54.33
46778;BME280;32536;47.128;8.746;2024-01-06T02:50:39;90428.63;;;7.01;54.39
46778;BME280;32536;47.128;8.746;2024-01-06T02:53:06;90429.47;;;6.98;54.77
46778;BME280;32536;47.128;8.746;2024-01-06T02:55:35;90437.13;;;6.96;54.75
46778;BME280;32536;47.128;8.746;2024-01-06T02:58:02;90434.81;;;6.98;55.18
46778;BME280;32536;47.128;8.746;2024-01-06T03:00:29;90437.31;;;7.05;54.90
46778;BME280;32536;47.128;8.746;2024-01-06T03:02:55;90436.34;;;7.16;54.53
46778;BME280;32536;47.128;8.746;2024-01-06T03:05:22;90439.22;;;7.25;54.60
46778;BME280;32536;47.128;8.746;2024-01-06T03:07:49;90434.13;;;7.31;53.86
46778;BME280;32536;47.128;8.746;2024-01-06T03:10:16;90442.47;;;7.33;54.43
46778;BME280;32536;47.128;8.746;2024-01-06T03:12:42;90435.56;;;7.35;54.09
46778;BME280;32536;47.128;8.746;2024-01-06T03:15:09;90440.47;;;7.37;53.48
46778;BME280;32536;47.128;8.746;2024-01-06T03:17:37;90437.06;;;7.36;54.29
46778;BME280;32536;47.128;8.746;2024-01-06T03:20:04;90442.03;;;7.34;53.63
46778;BME280;32536;47.128;8.746;2024-01-06T03:22:33;90443.19;;;7.33;53.97
46778;BME280;32536;47.128;8.746;2024-01-06T03:24:59;90442.88;;;7.31;53.52
46778;BME280;32536;47.128;8.746;2024-01-06T03:27:26;90436.13;;;7.27;54.44
46778;BME280;32536;47.128;8.746;2024-01-06T03:29:53;90447.66;;;7.20;53.73
46778;BME280;32536;47.128;8.746;2024-01-06T03:32:20;90446.66;;;7.14;54.19
46778;BME280;32536;47.128;8.746;2024-01-06T03:34:47;90451.66;;;7.12;54.57
46778;BME280;32536;47.128;8.746;2024-01-06T03:37:14;90449.00;;;7.12;54.21
46778;BME280;32536;47.128;8.746;2024-01-06T03:39:41;90456.97;;;7.12;54.31
46778;BME280;32536;47.128;8.746;2024-01-06T03:42:07;90457.13;;;7.04;53.94
46778;BME280;32536;47.128;8.746;2024-01-06T03:44:34;90455.34;;;6.98;54.16
46778;BME280;32536;47.128;8.746;2024-01-06T03:47:01;90446.75;;;6.90;54.57
46778;BME280;32536;47.128;8.746;2024-01-06T03:49:28;90457.09;;;6.84;54.85
46778;BME280;32536;47.128;8.746;2024-01-06T03:51:54;90461.00;;;6.80;54.17
46778;BME280;32536;47.128;8.746;2024-01-06T03:54:21;90455.00;;;6.76;54.51
46778;BME280;32536;47.128;8.746;2024-01-06T03:56:48;90460.72;;;6.74;55.34
46778;BME280;32536;47.128;8.746;2024-01-06T03:59:15;90462.31;;;6.71;55.17
46778;BME280;32536;47.128;8.746;2024-01-06T04:01:42;90458.47;;;6.72;55.02
46778;BME280;32536;47.128;8.746;2024-01-06T04:04:09;90457.31;;;6.73;54.94
46778;BME280;32536;47.128;8.746;2024-01-06T04:06:35;90450.81;;;6.75;54.50
46778;BME280;32536;47.128;8.746;2024-01-06T04:09:02;90462.91;;;6.79;54.43
46778;BME280;32536;47.128;8.746;2024-01-06T04:11:29;90462.19;;;6.79;54.70
46778;BME280;32536;47.128;8.746;2024-01-06T04:13:56;90464.84;;;6.79;54.95
46778;BME280;32536;47.128;8.746;2024-01-06T04:16:23;90469.31;;;6.82;54.67
46778;BME280;32536;47.128;8.746;2024-01-06T04:18:51;90476.09;;;6.86;54.78
46778;BME280;32536;47.128;8.746;2024-01-06T04:21:18;90473.72;;;6.92;54.67
46778;BME280;32536;47.128;8.746;2024-01-06T04:23:44;90475.53;;;6.95;54.63
46778;BME280;32536;47.128;8.746;2024-01-06T04:26:11;90478.97;;;6.96;54.79
46778;BME280;32536;47.128;8.746;2024-01-06T04:28:39;90482.03;;;6.94;54.56
46778;BME280;32536;47.128;8.746;2024-01-06T04:31:05;90482.78;;;6.95;54.84
46778;BME280;32536;47.128;8.746;2024-01-06T04:33:32;90480.53;;;6.93;54.70
46778;BME280;32536;47.128;8.746;2024-01-06T04:35:59;90477.19;;;6.89;54.81
46778;BME280;32536;47.128;8.746;2024-01-06T04:38:27;90476.16;;;6.83;55.19
46778;BME280;32536;47.128;8.746;2024-01-06T04:40:54;90474.38;;;6.76;55.07
46778;BME280;32536;47.128;8.746;2024-01-06T04:43:21;90485.16;;;6.69;55.28
46778;BME280;32536;47.128;8.746;2024-01-06T04:45:47;90480.34;;;6.60;55.00
46778;BME280;32536;47.128;8.746;2024-01-06T04:48:16;90484.66;;;6.54;55.18
46778;BME280;32536;47.128;8.746;2024-01-06T04:50:42;90490.84;;;6.47;55.38
46778;BME280;32536;47.128;8.746;2024-01-06T04:53:09;90493.91;;;6.46;54.99
46778;BME280;32536;47.128;8.746;2024-01-06T04:55:36;90489.41;;;6.43;55.04
46778;BME280;32536;47.128;8.746;2024-01-06T04:58:03;90490.97;;;6.40;54.83
46778;BME280;32536;47.128;8.746;2024-01-06T05:00:30;90488.38;;;6.36;55.08
46778;BME280;32536;47.128;8.746;2024-01-06T05:02:56;90485.00;;;6.32;55.05
46778;BME280;32536;47.128;8.746;2024-01-06T05:05:23;90498.03;;;6.27;55.48
46778;BME280;32536;47.128;8.746;2024-01-06T05:07:50;90501.09;;;6.25;55.01
46778;BME280;32536;47.128;8.746;2024-01-06T05:10:17;90504.16;;;6.23;55.65
46778;BME280;32536;47.128;8.746;2024-01-06T05:12:43;90508.38;;;6.21;55.03
46778;BME280;32536;47.128;8.746;2024-01-06T05:15:10;90505.75;;;6.17;55.00
46778;BME280;32536;47.128;8.746;2024-01-06T05:17:37;90507.31;;;6.15;55.51
46778;BME280;32536;47.128;8.746;2024-01-06T05:20:04;90509.63;;;6.13;55.53
46778;BME280;32536;47.128;8.746;2024-01-06T05:22:32;90512.28;;;6.13;55.65
46778;BME280;32536;47.128;8.746;2024-01-06T05:24:59;90513.06;;;6.13;55.13
46778;BME280;32536;47.128;8.746;2024-01-06T05:27:25;90509.25;;;6.14;55.33
46778;BME280;32536;47.128;8.746;2024-01-06T05:29:52;90515.31;;;6.15;55.63
46778;BME280;32536;47.128;8.746;2024-01-06T05:32:19;90516.44;;;6.14;55.17
46778;BME280;32536;47.128;8.746;2024-01-06T05:34:46;90521.03;;;6.13;55.48
46778;BME280;32536;47.128;8.746;2024-01-06T05:37:14;90520.63;;;6.15;55.46
46778;BME280;32536;47.128;8.746;2024-01-06T05:39:40;90519.13;;;6.14;55.73
46778;BME280;32536;47.128;8.746;2024-01-06T05:42:10;90519.53;;;6.12;55.88
46778;BME280;32536;47.128;8.746;2024-01-06T05:44:42;90528.59;;;6.15;55.86
46778;BME280;32536;47.128;8.746;2024-01-06T05:47:09;90530.84;;;6.16;55.84
46778;BME280;32536;47.128;8.746;2024-01-06T05:49:36;90528.19;;;6.16;55.39
46778;BME280;32536;47.128;8.746;2024-01-06T05:52:09;90537.25;;;6.19;55.83
46778;BME280;32536;47.128;8.746;2024-01-06T05:54:36;90538.03;;;6.19;55.57
46778;BME280;32536;47.128;8.746;2024-01-06T05:57:05;90541.44;;;6.20;55.48
46778;BME280;32536;47.128;8.746;2024-01-06T05:59:33;90534.22;;;6.20;55.85
46778;BME280;32536;47.128;8.746;2024-01-06T06:01:59;90540.69;;;6.19;55.97
46778;BME280;32536;47.128;8.746;2024-01-06T06:04:26;90555.81;;;6.22;55.37
46778;BME280;32536;47.128;8.746;2024-01-06T06:06:53;90550.19;;;6.20;55.87
46778;BME280;32536;47.128;8.746;2024-01-06T06:09:20;90554.00;;;6.19;55.93
46778;BME280;32536;47.128;8.746;2024-01-06T06:11:47;90554.72;;;6.20;55.25
46778;BME280;32536;47.128;8.746;2024-01-06T06:14:14;90556.66;;;6.19;55.68
46778;BME280;32536;47.128;8.746;2024-01-06T06:16:41;90548.31;;;6.17;55.77
46778;BME280;32536;47.128;8.746;2024-01-06T06:19:07;90548.31;;;6.17;55.79
46778;BME280;32536;47.128;8.746;2024-01-06T06:21:34;90547.16;;;6.18;56.14
46778;BME280;32536;47.128;8.746;2024-01-06T06:24:01;90550.56;;;6.19;55.64
46778;BME280;32536;47.128;8.746;2024-01-06T06:26:28;90544.09;;;6.20;55.84
46778;BME280;32536;47.128;8.746;2024-01-06T06:28:55;90546.69;;;6.23;56.02
46778;BME280;32536;47.128;8.746;2024-01-06T06:31:22;90532.25;;;6.24;55.88
46778;BME280;32536;47.128;8.746;2024-01-06T06:33:49;90539.44;;;6.28;55.93
46778;BME280;32536;47.128;8.746;2024-01-06T06:36:16;90539.75;;;6.30;55.88
46778;BME280;32536;47.128;8.746;2024-01-06T06:38:42;90550.34;;;6.33;55.40
46778;BME280;32536;47.128;8.746;2024-01-06T06:41:09;90548.78;;;6.36;55.58
46778;BME280;32536;47.128;8.746;2024-01-06T06:43:36;90555.63;;;6.37;55.28
46778;BME280;32536;47.128;8.746;2024-01-06T06:46:03;90548.41;;;6.37;55.40
46778;BME280;32536;47.128;8.746;2024-01-06T06:48:30;90566.56;;;6.43;56.12
46778;BME280;32536;47.128;8.746;2024-01-06T06:50:56;90560.75;;;6.48;56.21
46778;BME280;32536;47.128;8.746;2024-01-06T06:53:23;90556.50;;;6.54;55.68
46778;BME280;32536;47.128;8.746;2024-01-06T06:55:50;90559.38;;;6.63;55.10
46778;BME280;32536;47.128;8.746;2024-01-06T06:58:16;90561.16;;;6.70;55.07
46778;BME280;32536;47.128;8.746;2024-01-06T07:00:43;90564.47;;;6.78;55.23
46778;BME280;32536;47.128;8.746;2024-01-06T07:03:10;90573.56;;;6.80;55.30
46778;BME280;32536;47.128;8.746;2024-01-06T07:05:37;90570.47;;;6.82;54.79
46778;BME280;32536;47.128;8.746;2024-01-06T07:08:05;90576.47;;;6.86;55.32
46778;BME280;32536;47.128;8.746;2024-01-06T07:10:32;90567.63;;;6.93;55.47
46778;BME280;32536;47.128;8.746;2024-01-06T07:12:58;90575.50;;;7.00;55.38
46778;BME280;32536;47.128;8.746;2024-01-06T07:15:25;90578.47;;;7.05;54.71
46778;BME280;32536;47.128;8.746;2024-01-06T07:17:52;90581.78;;;7.10;54.87
46778;BME280;32536;47.128;8.746;2024-01-06T07:20:19;90588.22;;;7.12;54.69
46778;BME280;32536;47.128;8.746;2024-01-06T07:22:45;90584.41;;;7.13;54.74
46778;BME280;32536;47.128;8.746;2024-01-06T07:25:12;90589.66;;;7.17;55.10
46778;BME280;32536;47.128;8.746;2024-01-06T07:27:39;90589.59;;;7.20;54.32
46778;BME280;32536;47.128;8.746;2024-01-06T07:30:06;90596.03;;;7.23;54.62
46778;BME280;32536;47.128;8.746;2024-01-06T07:32:36;90597.59;;;7.20;54.13
46778;BME280;32536;47.128;8.746;2024-01-06T07:35:03;90594.63;;;7.15;54.42
46778;BME280;32536;47.128;8.746;2024-01-06T07:37:30;90595.47;;;7.12;54.66
46778;BME280;32536;47.128;8.746;2024-01-06T07:39:57;90607.28;;;7.11;55.02
46778;BME280;32536;47.128;8.746;2024-01-06T07:42:24;90606.56;;;7.07;54.94
46778;BME280;32536;47.128;8.746;2024-01-06T07:44:51;90600.97;;;7.01;54.74
46778;BME280;32536;47.128;8.746;2024-01-06T07:47:18;90602.13;;;7.00;54.90
46778;BME280;32536;47.128;8.746;2024-01-06T07:49:44;90612.78;;;7.00;55.38
46778;BME280;32536;47.128;8.746;2024-01-06T07:52:12;90616.19;;;7.00;54.59
46778;BME280;32536;47.128;8.746;2024-01-06T07:54:39;90615.38;;;7.03;55.01
46778;BME280;32536;47.128;8.746;2024-01-06T07:57:06;90616.19;;;7.00;55.14
46778;BME280;32536;47.128;8.746;2024-01-06T07:59:33;90613.59;;;6.97;54.71
46778;BME280;32536;47.128;8.746;2024-01-06T08:01:59;90612.84;;;6.96;55.27
46778;BME280;32536;47.128;8.746;2024-01-06T08:04:26;90614.81;;;6.92;55.38
46778;BME280;32536;47.128;8.746;2024-01-06T08:06:53;90615.25;;;6.87;55.48
46778;BME280;32536;47.128;8.746;2024-01-06T08:09:20;90610.75;;;6.84;55.16
46778;BME280;32536;47.128;8.746;2024-01-06T08:11:49;90617.53;;;6.88;55.10
46778;BME280;32536;47.128;8.746;2024-01-06T08:14:16;90606.41;;;6.94;55.49
46778;BME280;32536;47.128;8.746;2024-01-06T08:16:43;90607.88;;;6.98;54.78
46778;BME280;32536;47.128;8.746;2024-01-06T08:19:10;90610.06;;;7.03;54.62
46778;BME280;32536;47.128;8.746;2024-01-06T08:21:37;90607.66;;;7.09;55.07
46778;BME280;32536;47.128;8.746;2024-01-06T08:24:04;90615.94;;;7.15;54.69
46778;BME280;32536;47.128;8.746;2024-01-06T08:26:31;90618.53;;;7.18;54.60
46778;BME280;32536;47.128;8.746;2024-01-06T08:28:57;90617.31;;;7.23;54.48
46778;BME280;32536;47.128;8.746;2024-01-06T08:31:24;90617.31;;;7.23;54.64
46778;BME280;32536;47.128;8.746;2024-01-06T08:33:51;90625.25;;;7.27;54.38
46778;BME280;32536;47.128;8.746;2024-01-06T08:36:18;90624.44;;;7.30;54.20
46778;BME280;32536;47.128;8.746;2024-01-06T08:38:44;90627.84;;;7.30;54.11
46778;BME280;32536;47.128;8.746;2024-01-06T08:41:11;90629.38;;;7.31;53.75
46778;BME280;32536;47.128;8.746;2024-01-06T08:43:38;90622.88;;;7.32;54.17
46778;BME280;32536;47.128;8.746;2024-01-06T08:46:05;90627.09;;;7.30;54.36
46778;BME280;32536;47.128;8.746;2024-01-06T08:48:31;90631.00;;;7.25;53.83
46778;BME280;32536;47.128;8.746;2024-01-06T08:50:58;90632.53;;;7.22;54.11
46778;BME280;32536;47.128;8.746;2024-01-06T08:53:25;90630.03;;;7.15;54.05
46778;BME280;32536;47.128;8.746;2024-01-06T08:55:52;90633.91;;;7.11;53.88
46778;BME280;32536;47.128;8.746;2024-01-06T08:58:18;90646.13;;;7.08;54.33
46778;BME280;32536;47.128;8.746;2024-01-06T09:00:45;90647.69;;;7.05;54.50
46778;BME280;32536;47.128;8.746;2024-01-06T09:03:12;90647.69;;;7.05;53.99
46778;BME280;32536;47.128;8.746;2024-01-06T09:05:39;90646.94;;;7.05;54.19
46778;BME280;32536;47.128;8.746;2024-01-06T09:08:06;90647.75;;;7.02;53.70
46778;BME280;32536;47.128;8.746;2024-01-06T09:10:33;90650.06;;;7.00;53.76
46778;BME280;32536;47.128;8.746;2024-01-06T09:12:59;90649.75;;;6.94;53.61
46778;BME280;32536;47.128;8.746;2024-01-06T09:15:27;90654.00;;;6.92;53.91
46778;BME280;32536;47.128;8.746;2024-01-06T09:17:54;90657.81;;;6.91;54.53
46778;BME280;32536;47.128;8.746;2024-01-06T09:20:20;90649.88;;;6.87;54.04
46778;BME280;32536;47.128;8.746;2024-01-06T09:22:49;90662.84;;;6.85;54.48
46778;BME280;32536;47.128;8.746;2024-01-06T09:25:16;90662.09;;;6.84;54.75
46778;BME280;32536;47.128;8.746;2024-01-06T09:27:42;90660.94;;;6.85;54.59
46778;BME280;32536;47.128;8.746;2024-01-06T09:30:09;90661.28;;;6.87;54.52
46778;BME280;32536;47.128;8.746;2024-01-06T09:32:36;90660.13;;;6.88;54.38
46778;BME280;32536;47.128;8.746;2024-01-06T09:35:03;90661.22;;;6.91;54.78
46778;BME280;32536;47.128;8.746;2024-01-06T09:37:30;90662.75;;;6.92;54.30
46778;BME280;32536;47.128;8.746;2024-01-06T09:39:57;90660.75;;;6.96;54.71
46778;BME280;32536;47.128;8.746;2024-01-06T09:42:25;90669.13;;;6.98;54.69
46778;BME280;32536;47.128;8.746;2024-01-06T09:44:52;90661.19;;;6.95;54.39
46778;BME280;32536;47.128;8.746;2024-01-06T09:47:22;90667.72;;;6.90;54.60
46778;BME280;32536;47.128;8.746;2024-01-06T09:49:50;90665.09;;;6.86;54.48
46778;BME280;32536;47.128;8.746;2024-01-06T09:52:21;90664.75;;;6.84;54.66
46778;BME280;32536;47.128;8.746;2024-01-06T09:54:52;90668.56;;;6.83;55.05
46778;BME280;32536;47.128;8.746;2024-01-06T09:57:22;90665.16;;;6.83;54.80
46778;BME280;32536;47.128;8.746;2024-01-06T09:59:49;90670.44;;;6.86;54.25
46778;BME280;32536;47.128;8.746;2024-01-06T10:02:17;90670.78;;;6.88;54.72
46778;BME280;32536;47.128;8.746;2024-01-06T10:04:44;90662.81;;;6.88;54.91
46778;BME280;32536;47.128;8.746;2024-01-06T10:07:11;90661.22;;;6.91;54.80
46778;BME280;32536;47.128;8.746;2024-01-06T10:09:42;90660.41;;;6.94;54.87
46778;BME280;32536;47.128;8.746;2024-01-06T10:12:09;90664.53;;;6.99;54.38
46778;BME280;32536;47.128;8.746;2024-01-06T10:14:37;90660.31;;;7.01;54.61
46778;BME280;32536;47.128;8.746;2024-01-06T10:17:06;90658.78;;;7.00;54.76
46778;BME280;32536;47.128;8.746;2024-01-06T10:19:35;90664.13;;;7.00;54.89
46778;BME280;32536;47.128;8.746;2024-01-06T10:22:04;90669.06;;;7.02;54.68
46778;BME280;32536;47.128;8.746;2024-01-06T10:24:30;90659.50;;;7.04;54.93
46778;BME280;32536;47.128;8.746;2024-01-06T10:26:57;90656.78;;;7.08;54.79
46778;BME280;32536;47.128;8.746;2024-01-06T10:29:25;90652.19;;;7.09;55.24
46778;BME280;32536;47.128;8.746;2024-01-06T10:31:53;90649.53;;;7.09;54.46
46778;BME280;32536;47.128;8.746;2024-01-06T10:34:21;90653.34;;;7.08;54.49
46778;BME280;32536;47.128;8.746;2024-01-06T10:36:49;90649.66;;;7.01;54.93
46778;BME280;32536;47.128;8.746;2024-01-06T10:39:20;90647.41;;;7.00;55.18
46778;BME280;32536;47.128;8.746;2024-01-06T10:42:09;90642.47;;;6.98;54.90
46778;BME280;32536;47.128;8.746;2024-01-06T10:44:39;90644.31;;;7.01;54.54
46778;BME280;32536;47.128;8.746;2024-01-06T10:47:06;90638.63;;;6.99;54.77
46778;BME280;32536;47.128;8.746;2024-01-06T10:49:34;90643.34;;;6.92;54.69
46778;BME280;32536;47.128;8.746;2024-01-06T10:52:02;90636.22;;;6.85;54.82
46778;BME280;32536;47.128;8.746;2024-01-06T10:54:31;90643.91;;;6.79;55.04
46778;BME280;32536;47.128;8.746;2024-01-06T10:57:02;90648.50;;;6.79;55.33
46778;BME280;32536;47.128;8.746;2024-01-06T10:59:31;90645.44;;;6.80;55.41
46778;BME280;32536;47.128;8.746;2024-01-06T11:02:00;90646.53;;;6.83;55.79
46778;BME280;32536;47.128;8.746;2024-01-06T11:04:29;90643.44;;;6.84;55.55
46778;BME280;32536;47.128;8.746;2024-01-06T11:06:56;90642.97;;;6.89;55.37
46778;BME280;32536;47.128;8.746;2024-01-06T11:09:27;90648.25;;;6.93;55.47
46778;BME280;32536;47.128;8.746;2024-01-06T11:11:57;90649.69;;;6.98;55.31
46778;BME280;32536;47.128;8.746;2024-01-06T11:14:27;90647.41;;;7.00;54.96
46778;BME280;32536;47.128;8.746;2024-01-06T11:16:54;90646.25;;;7.01;55.21
46778;BME280;32536;47.128;8.746;2024-01-06T11:22:28;90643.16;;;7.02;54.86
46778;BME280;32536;47.128;8.746;2024-01-06T11:25:04;90653.94;;;6.95;54.81
46778;BME280;32536;47.128;8.746;2024-01-06T11:27:33;90642.25;;;6.89;55.12
46778;BME280;32536;47.128;8.746;2024-01-06T11:30:02;90643.81;;;6.86;55.17
46778;BME280;32536;47.128;8.746;2024-01-06T11:32:36;90642.31;;;6.85;55.69
46778;BME280;32536;47.128;8.746;2024-01-06T11:35:13;90629.72;;;6.86;55.68
46778;BME280;32536;47.128;8.746;2024-01-06T11:43:10;90629.41;;;6.84;55.06
46778;BME280;32536;47.128;8.746;2024-01-06T11:45:42;90630.50;;;6.86;55.16
46778;BME280;32536;47.128;8.746;2024-01-06T11:48:11;90630.44;;;6.90;55.09
46778;BME280;32536;47.128;8.746;2024-01-06T11:50:39;90632.63;;;6.95;54.81
46778;BME280;32536;47.128;8.746;2024-01-06T11:53:08;90615.50;;;6.96;54.79
46778;BME280;32536;47.128;8.746;2024-01-06T11:55:38;90617.75;;;6.98;55.28
46778;BME280;32536;47.128;8.746;2024-01-06T11:58:05;90623.03;;;7.01;55.22
46778;BME280;32536;47.128;8.746;2024-01-06T12:00:33;90621.88;;;7.02;55.30
46778;BME280;32536;47.128;8.746;2024-01-06T12:03:02;90618.47;;;7.02;55.13
46778;BME280;32536;47.128;8.746;2024-01-06T12:05:29;90617.28;;;7.03;55.05
46778;BME280;32536;47.128;8.746;2024-01-06T12:08:01;90618.06;;;7.03;55.05
46778;BME280;32536;47.128;8.746;2024-01-06T12:10:32;90614.91;;;7.09;54.66
46778;BME280;32536;47.128;8.746;2024-01-06T12:13:03;90608.00;;;7.11;55.04
46778;BME280;32536;47.128;8.746;2024-01-06T12:15:32;90607.94;;;7.15;54.51
46778;BME280;32536;47.128;8.746;2024-01-06T12:18:02;90612.94;;;7.13;55.06
46778;BME280;32536;47.128;8.746;2024-01-06T12:20:30;90604.19;;;7.12;54.56
46778;BME280;32536;47.128;8.746;2024-01-06T12:22:57;90606.81;;;7.16;55.03
46778;BME280;32536;47.128;8.746;2024-01-06T12:25:26;90607.53;;;7.16;55.00
46778;BME280;32536;47.128;8.746;2024-01-06T12:27:54;90614.84;;;7.12;55.06
46778;BME280;32536;47.128;8.746;2024-01-06T12:30:22;90604.25;;;7.09;55.17
46778;BME280;32536;47.128;8.746;2024-01-06T12:32:50;90611.94;;;7.03;55.22
46778;BME280;32536;47.128;8.746;2024-01-06T12:35:20;90608.56;;;7.02;55.52
46778;BME280;32536;47.128;8.746;2024-01-06T12:37:48;90602.06;;;7.03;55.33
46778;BME280;32536;47.128;8.746;2024-01-06T12:40:16;90602.88;;;7.00;55.22
46778;BME280;32536;47.128;8.746;2024-01-06T12:42:45;90602.59;;;6.95;54.65
46778;BME280;32536;47.128;8.746;2024-01-06T12:45:12;90601.84;;;6.94;54.55
46778;BME280;32536;47.128;8.746;2024-01-06T12:47:41;90599.53;;;6.96;55.42
46778;BME280;32536;47.128;8.746;2024-01-06T12:50:08;90593.00;;;7.01;54.98
46778;BME280;32536;47.128;8.746;2024-01-06T12:52:35;90600.97;;;7.01;55.27
46778;BME280;32536;47.128;8.746;2024-01-06T12:55:04;90597.16;;;7.02;54.61
46778;BME280;32536;47.128;8.746;2024-01-06T12:57:32;90600.16;;;7.04;55.31
46778;BME280;32536;47.128;8.746;2024-01-06T12:59:59;90599.00;;;7.05;54.82
46778;BME280;32536;47.128;8.746;2024-01-06T13:02:26;90594.44;;;7.05;55.32
46778;BME280;32536;47.128;8.746;2024-01-06T13:04:53;90598.94;;;7.09;55.41
46778;BME280;32536;47.128;8.746;2024-01-06T13:07:20;90603.09;;;7.10;54.89
46778;BME280;32536;47.128;8.746;2024-01-06T13:09:48;90597.72;;;7.13;54.86
46778;BME280;32536;47.128;8.746;2024-01-06T13:12:15;90607.16;;;7.18;54.76
46778;BME280;32536;47.128;8.746;2024-01-06T13:14:44;90598.41;;;7.17;54.47
46778;BME280;32536;47.128;8.746;2024-01-06T13:17:13;90605.72;;;7.13;54.36
46778;BME280;32536;47.128;8.746;2024-01-06T13:19:40;90604.25;;;7.09;54.44